Time;durP1;ratioP1;P1;durP2;ratioP2;P2;SDS_P1;SDS_P2;PMS_P1;PMS_P2;Temp;Humidity;BMP_temperature;BMP_pressure;BME280_temperature;BME280_humidity;BME280_pressure;Samples;Min_cycle;Max_cycle;Signal;HPM_P1;HPM_P2
2021/11/01 00:00:58;;;;;;;34.67;26.95;;;13.80;82.40;;;;;;5035637;28;20375;-63
2021/11/01 00:03:24;;;;;;;31.52;26.88;;;13.80;83.00;;;;;;5038418;28;20037;-62
2021/11/01 00:05:50;;;;;;;33.42;27.80;;;13.90;82.50;;;;;;5034361;28;20178;-62
2021/11/01 00:08:16;;;;;;;34.40;28.40;;;13.90;82.50;;;;;;5034430;28;20029;-62
2021/11/01 00:10:41;;;;;;;33.20;26.67;;;14.00;82.20;;;;;;5035148;28;20430;-62
2021/11/01 00:13:10;;;;;;;33.33;26.85;;;13.80;83.00;;;;;;5039660;28;20063;-62
2021/11/01 00:15:36;;;;;;;34.90;27.10;;;13.80;82.70;;;;;;5055049;28;20031;-62
2021/11/01 00:18:02;;;;;;;34.38;28.35;;;13.80;83.20;;;;;;5047572;28;20108;-62
2021/11/01 00:20:27;;;;;;;32.35;26.15;;;13.70;82.30;;;;;;5035262;28;20101;-62
2021/11/01 00:22:53;;;;;;;31.65;26.13;;;13.80;83.40;;;;;;5034417;28;20042;-62
2021/11/01 00:25:20;;;;;;;32.65;25.55;;;13.80;83.30;;;;;;5034962;28;20018;-62
2021/11/01 00:27:48;;;;;;;31.17;26.13;;;13.80;83.00;;;;;;5036183;28;20029;-62
2021/11/01 00:30:14;;;;;;;33.50;27.13;;;13.80;82.50;;;;;;5054662;28;20023;-62
2021/11/01 00:32:39;;;;;;;30.45;27.15;;;13.90;82.80;;;;;;5046655;28;20067;-62
2021/11/01 00:35:06;;;;;;;30.52;26.17;;;13.80;83.00;;;;;;5034120;28;20029;-62
2021/11/01 00:37:31;;;;;;;30.67;25.55;;;13.90;82.90;;;;;;5035061;28;20034;-62
2021/11/01 00:39:58;;;;;;;31.23;26.80;;;13.70;82.60;;;;;;5054578;28;20037;-62
2021/11/01 00:42:25;;;;;;;34.47;26.30;;;13.80;83.50;;;;;;5051769;28;20028;-62
2021/11/01 00:44:53;;;;;;;33.40;26.73;;;13.90;83.50;;;;;;5035083;28;20426;-62
2021/11/01 00:47:20;;;;;;;33.40;26.33;;;13.90;83.00;;;;;;5033681;28;20555;-62
2021/11/01 00:49:46;;;;;;;33.75;25.92;;;13.90;83.20;;;;;;5053842;28;20028;-62
2021/11/01 00:52:12;;;;;;;32.97;25.27;;;13.90;83.10;;;;;;5054380;28;20029;-62
2021/11/01 00:54:39;;;;;;;30.70;25.23;;;13.80;83.20;;;;;;5052681;28;20021;-62
2021/11/01 00:57:05;;;;;;;33.92;25.63;;;13.90;83.30;;;;;;5052215;28;20122;-62
2021/11/01 00:59:31;;;;;;;31.00;26.13;;;13.90;83.10;;;;;;5050645;28;20048;-62
2021/11/01 01:01:56;;;;;;;32.15;25.90;;;14.00;83.40;;;;;;5054421;28;20087;-62
2021/11/01 01:04:24;;;;;;;33.92;26.10;;;14.10;83.00;;;;;;5036936;28;20118;-62
2021/11/01 01:06:51;;;;;;;34.28;26.00;;;14.10;82.90;;;;;;5032999;28;20083;-62
2021/11/01 01:09:16;;;;;;;33.10;26.50;;;14.10;83.20;;;;;;5047865;28;20487;-62
2021/11/01 01:11:43;;;;;;;37.40;28.90;;;14.10;83.30;;;;;;5053960;28;20024;-62
2021/11/01 01:14:09;;;;;;;35.47;29.08;;;14.10;83.20;;;;;;5051173;28;20083;-62
2021/11/01 01:16:42;;;;;;;42.35;30.58;;;14.20;83.30;;;;;;5053907;28;20029;-62
2021/11/01 01:19:15;;;;;;;39.50;30.70;;;14.10;82.60;;;;;;5052263;28;20029;-62
2021/11/01 01:24:30;;;;;;;36.63;30.80;;;14.00;82.70;;;;;;5034073;28;20061;-62
2021/11/01 01:26:56;;;;;;;41.05;32.85;;;14.00;82.50;;;;;;5037841;28;21742;-62
2021/11/01 01:29:23;;;;;;;39.03;31.23;;;14.10;82.70;;;;;;5035988;28;20108;-61
2021/11/01 01:31:48;;;;;;;38.65;31.17;;;14.10;82.90;;;;;;5032484;28;20379;-62
2021/11/01 01:34:14;;;;;;;35.55;28.95;;;14.20;82.40;;;;;;5032713;28;20030;-62
2021/11/01 01:36:39;;;;;;;38.25;30.38;;;14.20;82.20;;;;;;5033620;28;20034;-62
2021/11/01 01:39:08;;;;;;;38.03;30.85;;;14.10;81.80;;;;;;5031914;28;20045;-63
2021/11/01 01:41:34;;;;;;;41.20;33.75;;;14.20;81.50;;;;;;5033542;28;20128;-62
2021/11/01 01:44:01;;;;;;;37.28;31.30;;;14.20;82.40;;;;;;5032630;28;20037;-62
2021/11/01 01:46:28;;;;;;;39.78;32.30;;;14.20;82.30;;;;;;5022719;28;20074;-63
2021/11/01 01:48:55;;;;;;;38.72;31.00;;;14.20;82.20;;;;;;5023982;28;20033;-63
2021/11/01 01:51:24;;;;;;;35.25;28.30;;;14.10;81.70;;;;;;5021577;28;20034;-63
2021/11/01 01:53:50;;;;;;;38.63;29.92;;;14.10;83.00;;;;;;5041514;28;20029;-62
2021/11/01 01:56:16;;;;;;;38.90;30.23;;;14.10;82.40;;;;;;5051716;28;20044;-63
2021/11/01 01:58:47;;;;;;;35.90;28.85;;;14.20;82.00;;;;;;5048633;28;20033;-63
2021/11/01 02:01:15;;;;;;;32.78;28.20;;;14.20;82.30;;;;;;5050225;28;20118;-63
2021/11/01 02:03:45;;;;;;;35.25;29.02;;;14.10;81.90;;;;;;5043686;28;20065;-63
2021/11/01 02:06:37;;;;;;;37.75;30.08;;;14.00;81.70;;;;;;5033366;28;20106;-63
2021/11/01 02:09:20;;;;;;;36.85;27.70;;;14.10;81.40;;;;;;5032031;28;20159;-63
2021/11/01 02:12:01;;;;;;;35.10;28.15;;;14.10;81.20;;;;;;5051765;28;20432;-62
2021/11/01 02:14:38;;;;;;;33.70;27.33;;;14.20;81.40;;;;;;5028416;28;20057;-63
2021/11/01 02:17:03;;;;;;;36.42;27.60;;;14.20;81.70;;;;;;5013714;28;20033;-63
2021/11/01 02:19:36;;;;;;;36.40;28.70;;;14.20;81.00;;;;;;5022110;28;20025;-63
2021/11/01 02:22:07;;;;;;;33.90;27.52;;;14.20;81.80;;;;;;5013342;28;20022;-63
2021/11/01 02:25:04;;;;;;;35.10;28.67;;;14.20;81.80;;;;;;5040302;28;20029;-63
2021/11/01 02:27:32;;;;;;;34.17;27.77;;;14.20;82.10;;;;;;5050622;28;20063;-62
2021/11/01 02:29:59;;;;;;;37.67;27.90;;;14.20;81.50;;;;;;5033308;28;20503;-62
2021/11/01 02:32:27;;;;;;;37.92;28.65;;;14.10;81.30;;;;;;5032857;28;20029;-62
2021/11/01 02:34:53;;;;;;;35.13;28.88;;;14.10;82.20;;;;;;5032092;28;20032;-62
2021/11/01 02:37:20;;;;;;;36.00;28.92;;;14.00;80.90;;;;;;5032513;28;20156;-61
2021/11/01 02:39:55;;;;;;;40.72;30.88;;;13.80;82.50;;;;;;5046156;28;20052;-62
2021/11/01 02:42:25;;;;;;;40.80;30.35;;;14.00;82.10;;;;;;5052872;28;20021;-62
2021/11/01 02:44:56;;;;;;;36.65;29.38;;;14.00;82.70;;;;;;5035207;28;20026;-63
2021/11/01 02:47:24;;;;;;;37.63;30.33;;;14.10;82.90;;;;;;5018101;28;20030;-62
2021/11/01 02:50:05;;;;;;;35.05;29.90;;;14.10;82.40;;;;;;5057316;28;20378;-62
2021/11/01 02:52:30;;;;;;;41.72;31.38;;;14.20;82.30;;;;;;5051301;28;20495;-62
2021/11/01 02:54:57;;;;;;;34.78;29.15;;;14.20;81.40;;;;;;5035866;28;20032;-62
2021/11/01 02:57:23;;;;;;;36.60;29.27;;;14.20;81.40;;;;;;5032638;28;20029;-62
2021/11/01 02:59:49;;;;;;;39.17;31.90;;;14.10;84.70;;;;;;5046019;28;20025;-62
2021/11/01 03:02:16;;;;;;;40.72;33.33;;;14.20;86.00;;;;;;5051300;28;20118;-62
2021/11/01 03:04:42;;;;;;;41.78;30.90;;;14.10;86.90;;;;;;5037982;28;20041;-62
2021/11/01 03:07:09;;;;;;;37.35;30.73;;;14.10;88.30;;;;;;5043438;28;20382;-63
2021/11/01 03:09:37;;;;;;;38.58;31.13;;;14.00;89.30;;;;;;5054947;28;20116;-62
2021/11/01 03:12:07;;;;;;;38.47;31.23;;;13.90;89.80;;;;;;5036997;28;20068;-62
2021/11/01 03:14:40;;;;;;;42.15;34.92;;;14.00;90.60;;;;;;5035042;28;20394;-62
2021/11/01 03:17:08;;;;;;;42.47;33.53;;;14.00;90.70;;;;;;5036343;28;20037;-62
2021/11/01 03:19:41;;;;;;;43.25;34.42;;;14.00;89.60;;;;;;5034744;28;20033;-62
2021/11/01 03:22:08;;;;;;;38.28;30.67;;;14.10;90.30;;;;;;5034928;28;20017;-62
2021/11/01 03:24:37;;;;;;;36.40;29.70;;;13.90;89.30;;;;;;5034411;28;20033;-62
2021/11/01 03:27:06;;;;;;;40.90;30.33;;;14.00;90.10;;;;;;5036419;28;20108;-62
2021/11/01 03:29:33;;;;;;;36.53;30.08;;;13.90;90.20;;;;;;5035235;28;20022;-62
2021/11/01 03:32:01;;;;;;;36.90;29.27;;;14.00;90.50;;;;;;5036311;28;20028;-62
2021/11/01 03:34:29;;;;;;;37.75;29.90;;;14.00;90.30;;;;;;5043410;28;20499;-62
2021/11/01 03:36:56;;;;;;;37.03;29.80;;;14.00;91.20;;;;;;5055955;28;20035;-62
2021/11/01 03:39:22;;;;;;;37.55;29.30;;;13.90;93.70;;;;;;5037022;28;20498;-63
2021/11/01 03:41:48;;;;;;;30.65;26.80;;;13.90;91.20;;;;;;5035841;28;20018;-62
2021/11/01 03:44:18;;;;;;;32.45;27.73;;;13.90;90.80;;;;;;5035135;28;20036;-62
2021/11/01 03:47:01;;;;;;;33.30;26.55;;;13.70;91.50;;;;;;5035896;28;20021;-62
2021/11/01 03:49:28;;;;;;;32.38;26.48;;;13.70;91.50;;;;;;5043902;28;20036;-62
2021/11/01 03:54:33;;;;;;;39.13;29.08;;;13.70;92.20;;;;;;5033675;28;20144;-62
2021/11/01 03:56:58;;;;;;;34.63;27.42;;;13.70;92.50;;;;;;5035615;28;20017;-62
2021/11/01 03:59:26;;;;;;;39.22;30.40;;;13.70;92.60;;;;;;5040041;28;20089;-62
2021/11/01 04:01:52;;;;;;;40.20;31.98;;;13.70;92.90;;;;;;5042448;28;20033;-63
2021/11/01 04:04:21;;;;;;;38.20;29.45;;;13.70;92.80;;;;;;5033138;28;20041;-62
2021/11/01 04:06:47;;;;;;;40.28;31.70;;;13.80;92.20;;;;;;5034019;28;20021;-62
2021/11/01 04:09:18;;;;;;;61.00;45.90;;;13.80;92.80;;;;;;5040801;28;20086;-63
2021/11/01 04:11:49;;;;;;;58.00;43.83;;;13.90;92.40;;;;;;5053817;28;20029;-62
2021/11/01 04:14:18;;;;;;;57.75;43.03;;;13.80;90.90;;;;;;5046749;28;20052;-62
2021/11/01 04:16:47;;;;;;;57.33;44.63;;;13.70;91.40;;;;;;5035067;28;20025;-62
2021/11/01 04:21:41;;;;;;;61.92;45.88;;;13.90;91.00;;;;;;5035477;28;20434;-63
2021/11/01 04:24:08;;;;;;;65.60;46.67;;;13.80;90.60;;;;;;5039098;28;20032;-63
2021/11/01 04:26:34;;;;;;;62.47;45.63;;;13.90;90.40;;;;;;5053464;28;20028;-63
2021/11/01 04:29:04;;;;;;;60.53;47.15;;;13.90;90.30;;;;;;5047728;28;20105;-63
2021/11/01 04:31:33;;;;;;;60.90;45.10;;;13.90;89.70;;;;;;5034626;28;20021;-63
2021/11/01 04:34:04;;;;;;;63.63;48.80;;;13.90;90.00;;;;;;5036312;28;20403;-63
2021/11/01 04:36:30;;;;;;;63.05;47.53;;;13.90;90.10;;;;;;5054873;28;20056;-63
2021/11/01 04:39:04;;;;;;;64.07;47.97;;;13.90;90.30;;;;;;5049190;28;20064;-62
2021/11/01 04:41:55;;;;;;;64.80;48.13;;;13.90;89.20;;;;;;5033453;28;20167;-63
2021/11/01 04:55:14;;;;;;;61.35;46.72;;;13.90;88.10;;;;;;5032716;28;20037;-63
2021/11/01 04:57:40;;;;;;;64.28;48.45;;;13.90;87.30;;;;;;5034237;28;20486;-63
2021/11/01 05:00:07;;;;;;;61.00;45.40;;;13.80;88.10;;;;;;5036525;28;20079;-62
2021/11/01 05:02:34;;;;;;;60.60;45.25;;;13.80;88.10;;;;;;5039365;28;20033;-63
2021/11/01 05:05:00;;;;;;;60.58;47.65;;;13.80;87.50;;;;;;5035652;28;20041;-63
2021/11/01 05:07:29;;;;;;;64.75;45.83;;;13.90;88.90;;;;;;5054275;28;20378;-63
2021/11/01 05:10:09;;;;;;;60.83;45.95;;;13.90;88.90;;;;;;5050780;28;20056;-63
2021/11/01 05:12:38;;;;;;;59.78;45.65;;;13.90;89.10;;;;;;5034151;28;20037;-63
2021/11/01 05:17:44;;;;;;;67.85;49.45;;;13.80;88.60;;;;;;5034049;28;20056;-63
2021/11/01 05:23:09;;;;;;;66.30;49.33;;;13.80;88.60;;;;;;5034142;28;20518;-63
2021/11/01 05:28:47;;;;;;;64.68;45.67;;;13.90;88.80;;;;;;5030954;28;20034;-62
2021/11/01 05:31:18;;;;;;;57.85;43.08;;;13.90;88.70;;;;;;5018058;28;20092;-62
2021/11/01 05:34:04;;;;;;;54.83;44.63;;;13.90;89.10;;;;;;5019546;28;20148;-62
2021/11/01 05:36:30;;;;;;;67.32;49.05;;;13.90;89.40;;;;;;5032684;28;20066;-62
2021/11/01 05:38:56;;;;;;;67.78;48.92;;;13.90;89.00;;;;;;5033226;28;20053;-62
2021/11/01 05:41:22;;;;;;;70.35;50.55;;;13.90;88.80;;;;;;5032443;28;20030;-62
2021/11/01 05:43:48;;;;;;;67.40;50.40;;;13.70;87.60;;;;;;5033416;28;20044;-62
2021/11/01 05:46:15;;;;;;;69.72;51.35;;;13.80;87.40;;;;;;5031647;28;20034;-62
2021/11/01 05:48:51;;;;;;;68.32;50.40;;;13.90;87.40;;;;;;5033427;28;20064;-62
2021/11/01 05:51:20;;;;;;;61.08;46.88;;;13.90;87.60;;;;;;5031179;28;20082;-62
2021/11/01 05:53:50;;;;;;;57.03;44.90;;;13.80;88.30;;;;;;5033513;28;20060;-62
2021/11/01 06:02:03;;;;;;;53.78;42.30;;;13.80;90.80;;;;;;5040609;28;19921;-62
2021/11/01 06:04:45;;;;;;;56.35;42.55;;;13.80;89.80;;;;;;5032822;28;20084;-64
2021/11/01 06:07:25;;;;;;;58.85;42.67;;;13.70;90.00;;;;;;5031175;28;20029;-62
2021/11/01 06:15:22;;;;;;;54.78;40.15;;;13.80;90.30;;;;;;5016487;28;20468;-62
2021/11/01 06:17:48;;;;;;;54.25;40.75;;;13.60;90.40;;;;;;5033246;28;20454;-62
2021/11/01 06:20:14;;;;;;;56.17;41.65;;;13.50;90.20;;;;;;5032009;28;20095;-62
2021/11/01 06:22:41;;;;;;;57.65;43.45;;;13.50;90.60;;;;;;5032789;28;20039;-62
2021/11/01 06:25:09;;;;;;;55.42;40.88;;;13.60;90.60;;;;;;5032537;28;20046;-63
2021/11/01 06:27:35;;;;;;;57.67;44.40;;;13.50;90.30;;;;;;5053235;28;20048;-63
2021/11/01 06:32:48;;;;;;;58.67;47.55;;;13.50;90.40;;;;;;5031365;28;20052;-62
2021/11/01 06:43:24;;;;;;;64.03;48.50;;;13.60;90.00;;;;;;5034848;28;20044;-62
2021/11/01 06:51:35;;;;;;;61.47;46.67;;;13.60;89.80;;;;;;5031262;28;20055;-63
2021/11/01 08:23:58;;;;;;;89.43;51.23;;;12.40;99.90;;;;;;5032045;28;20419;-63
2021/11/01 08:29:03;;;;;;;80.72;47.80;;;12.50;99.90;;;;;;5031880;28;20118;-63
2021/11/01 08:37:30;;;;;;;79.07;46.80;;;12.50;99.90;;;;;;5031781;28;20045;-63
2021/11/01 09:24:49;;;;;;;52.17;34.05;;;12.50;99.90;;;;;;5033296;28;20053;-61
2021/11/01 09:27:19;;;;;;;50.42;30.55;;;12.60;99.90;;;;;;5030727;28;20394;-61
2021/11/01 09:30:01;;;;;;;48.47;30.92;;;12.60;99.90;;;;;;5053611;28;20032;-62
2021/11/01 09:43:30;;;;;;;45.70;31.13;;;12.50;99.90;;;;;;5007438;28;20053;-61
2021/11/01 09:45:58;;;;;;;40.38;27.65;;;12.60;99.90;;;;;;5011621;28;20088;-61
2021/11/01 09:48:24;;;;;;;43.28;29.25;;;12.70;99.90;;;;;;5011756;28;20046;-62
2021/11/01 09:50:51;;;;;;;37.58;26.25;;;12.70;99.90;;;;;;5021973;28;20033;-65
2021/11/01 09:53:22;;;;;;;40.33;27.30;;;12.60;99.90;;;;;;5034135;28;20025;-61
2021/11/01 10:01:15;;;;;;;37.20;23.70;;;12.50;99.90;;;;;;5033461;28;20386;-65
2021/11/01 10:03:47;;;;;;;33.70;23.08;;;12.60;99.90;;;;;;5017662;28;20136;-62
2021/11/01 10:06:22;;;;;;;37.03;24.40;;;12.70;99.90;;;;;;5014233;28;20093;-58
2021/11/01 10:08:59;;;;;;;32.10;24.15;;;12.70;99.90;;;;;;5032459;28;20027;-55
2021/11/01 10:14:58;;;;;;;34.50;23.05;;;12.70;99.90;;;;;;5021996;28;20430;-63
2021/11/01 10:17:34;;;;;;;28.75;20.05;;;12.80;99.90;;;;;;5013282;28;20044;-64
2021/11/01 10:20:00;;;;;;;25.98;19.40;;;12.70;99.90;;;;;;5013176;28;20419;-63
2021/11/01 10:22:38;;;;;;;27.90;21.20;;;12.80;99.90;;;;;;5049279;28;20033;-67
2021/11/01 10:25:05;;;;;;;32.88;20.67;;;12.70;99.90;;;;;;5051626;28;20041;-62
2021/11/01 10:27:35;;;;;;;25.67;19.85;;;12.70;99.90;;;;;;5014898;28;20052;-58
2021/11/01 10:30:06;;;;;;;27.27;19.15;;;12.70;99.90;;;;;;5011787;28;20026;-58
2021/11/01 10:32:44;;;;;;;27.80;20.48;;;12.70;99.90;;;;;;5050266;28;20048;-54
2021/11/01 10:35:20;;;;;;;22.92;17.15;;;12.80;99.90;;;;;;5040181;28;20052;-57
2021/11/01 11:13:52;;;;;;;21.58;16.63;;;12.50;99.90;;;;;;5052612;28;20041;-62
2021/11/01 11:19:53;;;;;;;21.92;17.00;;;12.60;99.90;;;;;;5041958;28;20041;-61
2021/11/01 11:25:04;;;;;;;22.20;15.60;;;12.40;99.90;;;;;;5031701;28;20049;-61
2021/11/01 11:33:17;;;;;;;22.02;14.00;;;12.60;99.90;;;;;;5034713;28;20450;-61
2021/11/01 11:47:12;;;;;;;;;;;12.30;99.90;;;;;;5033534;28;20124;-62
2021/11/01 11:49:38;;;;;;;22.05;16.45;;;12.30;99.90;;;;;;5033581;28;19905;-62
2021/11/01 11:52:13;;;;;;;21.10;15.38;;;12.40;99.90;;;;;;5026269;28;20419;-62
2021/11/01 11:54:49;;;;;;;25.73;19.02;;;12.40;99.90;;;;;;5030118;28;20029;-62
2021/11/01 11:57:35;;;;;;;26.55;19.73;;;12.30;99.90;;;;;;5039131;28;20033;-62
2021/11/01 12:00:04;;;;;;;27.40;20.02;;;12.20;99.90;;;;;;5054671;28;20104;-62
2021/11/01 12:02:42;;;;;;;28.27;20.52;;;12.20;99.90;;;;;;5053030;28;20041;-62
2021/11/01 12:05:28;;;;;;;28.58;20.48;;;12.20;99.90;;;;;;5054052;28;20033;-62
2021/11/01 12:08:22;;;;;;;25.15;19.80;;;12.10;99.90;;;;;;5053081;28;20422;-63
2021/11/01 12:19:11;;;;;;;37.85;25.67;;;12.10;99.90;;;;;;5034408;28;20040;-62
2021/11/01 12:21:39;;;;;;;37.08;24.75;;;12.20;99.90;;;;;;5032414;28;20059;-62
2021/11/01 12:24:21;;;;;;;35.55;25.52;;;12.20;99.90;;;;;;5034941;28;20483;-62
2021/11/01 12:26:47;;;;;;;35.45;26.08;;;12.00;99.90;;;;;;5032991;28;20372;-62
2021/11/01 12:29:15;;;;;;;34.70;25.70;;;12.10;99.90;;;;;;5027370;28;20103;-62
2021/11/01 12:31:42;;;;;;;30.13;22.88;;;12.10;99.90;;;;;;5016046;28;20042;-62
2021/11/01 12:34:21;;;;;;;30.05;23.10;;;11.80;99.90;;;;;;5028352;28;20029;-62
2021/11/01 12:56:56;;;;;;;37.60;26.77;;;11.90;99.90;;;;;;5034978;28;20029;-62
2021/11/01 12:58:01;;;;;;;53.08;29.58;;;11.90;99.90;;;;;;5033982;28;20094;-62
2021/11/01 13:00:38;;;;;;;46.08;28.25;;;12.10;99.90;;;;;;5032881;28;20033;-62
2021/11/01 13:03:15;;;;;;;44.70;28.88;;;12.10;99.90;;;;;;5034473;28;20032;-62
2021/11/01 13:05:44;;;;;;;45.35;29.38;;;11.80;99.90;;;;;;5054386;28;20090;-62
2021/11/01 13:08:13;;;;;;;49.30;29.25;;;11.90;99.90;;;;;;5042069;28;20022;-62
2021/11/01 13:10:43;;;;;;;46.42;29.08;;;11.90;99.90;;;;;;5040283;28;20032;-62
2021/11/01 13:18:32;;;;;;;62.47;33.90;;;11.80;99.90;;;;;;5033488;28;20390;-61
2021/11/01 13:21:08;;;;;;;61.92;35.10;;;11.90;99.90;;;;;;5032559;28;20113;-62
2021/11/01 13:23:37;;;;;;;49.60;31.25;;;12.10;99.90;;;;;;5031209;28;20033;-62
2021/11/01 13:29:11;;;;;;;50.80;30.60;;;12.00;99.90;;;;;;5028320;28;20506;-61
2021/11/01 13:39:44;;;;;;;53.72;31.25;;;11.80;99.90;;;;;;5034261;28;20049;-61
2021/11/01 13:42:16;;;;;;;55.15;30.92;;;11.90;99.90;;;;;;5051797;28;20534;-61
2021/11/01 13:44:48;;;;;;;57.72;31.60;;;11.90;99.90;;;;;;5053601;28;20043;-62
2021/11/01 13:47:15;;;;;;;58.38;31.88;;;11.90;99.90;;;;;;5051081;28;20017;-62
2021/11/01 13:49:45;;;;;;;59.88;31.15;;;11.80;99.90;;;;;;5021480;28;20109;-61
2021/11/01 13:52:28;;;;;;;70.72;35.90;;;11.80;99.90;;;;;;5013618;28;20075;-62
2021/11/01 13:55:00;;;;;;;62.13;34.58;;;12.00;99.90;;;;;;5013725;28;20030;-62
2021/11/01 13:57:28;;;;;;;72.95;40.75;;;12.10;99.90;;;;;;5015473;28;20031;-62
2021/11/01 14:00:18;;;;;;;68.60;38.28;;;12.10;99.90;;;;;;5031977;28;20121;-62
2021/11/01 14:03:01;;;;;;;70.72;39.60;;;12.00;99.90;;;;;;5032528;28;20509;-62
2021/11/01 14:11:09;;;;;;;81.45;44.20;;;11.90;99.90;;;;;;5033635;28;20501;-63
2021/11/01 14:16:23;;;;;;;86.40;45.63;;;12.70;99.90;;;;;;5053134;28;20037;-63
2021/11/01 15:15:09;;;;;;;104.45;53.47;;;17.00;99.90;;;;;;5036630;28;20114;-62
2021/11/01 15:32:19;;;;;;;92.95;50.15;;;17.90;99.90;;;;;;5036056;28;20044;-62
2021/11/01 15:34:04;;;;;;;98.50;52.03;;;18.50;99.90;;;;;;5041755;28;20040;-62
2021/11/01 16:19:41;;;;;;;41.85;29.55;;;16.80;99.90;;;;;;5035989;28;20104;-62
2021/11/01 16:22:09;;;;;;;37.30;25.67;;;16.80;99.90;;;;;;5042336;28;20059;-61
2021/11/01 16:24:36;;;;;;;45.08;29.17;;;16.90;99.90;;;;;;5055273;28;20352;-61
2021/11/01 16:27:03;;;;;;;33.95;22.08;;;16.50;99.90;;;;;;5035639;28;20379;-62
2021/11/01 16:29:42;;;;;;;39.08;25.58;;;16.90;99.90;;;;;;5029884;28;20033;-61
2021/11/01 16:32:16;;;;;;;31.25;22.00;;;16.60;99.90;;;;;;5040763;28;20017;-61
2021/11/01 16:34:46;;;;;;;28.33;19.88;;;16.60;99.90;;;;;;5015146;28;20030;-62
2021/11/01 16:37:22;;;;;;;25.92;18.75;;;17.10;99.90;;;;;;5023810;28;20103;-62
2021/11/01 16:39:51;;;;;;;19.73;15.23;;;17.20;99.90;;;;;;5034383;28;20479;-62
2021/11/01 16:42:19;;;;;;;16.50;14.05;;;17.30;99.90;;;;;;5033733;28;20041;-62
2021/11/01 16:44:46;;;;;;;21.42;14.77;;;16.90;99.90;;;;;;5034602;28;20033;-62
2021/11/01 16:47:11;;;;;;;17.48;13.65;;;17.00;99.90;;;;;;5040590;28;20055;-62
2021/11/01 16:49:37;;;;;;;20.63;14.25;;;16.80;99.90;;;;;;5054462;28;20020;-62
2021/11/01 16:52:38;;;;;;;18.08;13.45;;;13.00;99.90;;;;;;5043523;28;20021;-62
2021/11/01 16:54:59;;;;;;;14.57;11.80;;;13.10;99.90;;;;;;5027488;28;20034;-62
2021/11/01 16:57:36;;;;;;;14.60;11.27;;;12.80;99.90;;;;;;5032354;28;20116;-61
2021/11/01 17:00:26;;;;;;;13.30;11.07;;;12.90;99.90;;;;;;5034865;28;20018;-61
2021/11/01 17:03:31;;;;;;;10.82;9.68;;;19.00;99.90;;;;;;5045324;28;20111;-61
2021/11/01 17:21:40;;;;;;;10.77;9.50;;;15.00;99.90;;;;;;5049546;28;20056;-61
2021/11/01 17:35:32;;;;;;;8.93;6.90;;;17.60;99.90;;;;;;5033487;28;20048;-60
2021/11/01 18:37:38;;;;;;;7.22;5.50;;;18.70;99.90;;;;;;5043693;28;20510;-61
2021/11/01 18:43:37;;;;;;;6.63;6.00;;;18.70;99.90;;;;;;5044860;28;20143;-61
2021/11/01 18:51:05;;;;;;;5.63;5.13;;;18.90;99.90;;;;;;5054782;28;20544;-58
2021/11/01 18:53:41;;;;;;;6.70;6.00;;;18.60;99.90;;;;;;5055519;28;20070;-61
2021/11/01 18:56:09;;;;;;;5.80;5.20;;;18.60;99.90;;;;;;5038048;28;20029;-61
2021/11/01 18:58:39;;;;;;;8.38;5.38;;;18.30;99.90;;;;;;5036597;28;20554;-61
2021/11/01 19:01:10;;;;;;;5.03;4.20;;;18.40;99.90;;;;;;5048376;28;20029;-60
2021/11/01 19:03:43;;;;;;;4.78;4.30;;;18.40;99.90;;;;;;5046110;28;20033;-60
2021/11/01 19:12:47;;;;;;;5.45;4.95;;;18.40;99.90;;;;;;5052974;28;20032;-60
2021/11/01 19:18:08;;;;;;;7.43;6.22;;;18.10;99.90;;;;;;5017149;28;20113;-60
2021/11/01 20:06:59;;;;;;;17.10;14.68;;;18.10;99.90;;;;;;5035630;28;20056;-56
2021/11/01 20:12:30;;;;;;;;;;;17.90;99.90;;;;;;5035274;28;20036;-53
2021/11/01 21:27:10;;;;;;;21.10;17.30;;;17.40;99.90;;;;;;5037310;28;20037;-57
2021/11/01 21:29:37;;;;;;;24.58;18.35;;;17.40;99.90;;;;;;5042589;28;20037;-56
2021/11/01 21:32:04;;;;;;;24.83;18.67;;;17.10;99.90;;;;;;5054081;28;20036;-56
2021/11/01 21:36:58;;;;;;;20.33;17.33;;;17.10;99.90;;;;;;5053758;28;20025;-57
2021/11/01 21:39:25;;;;;;;19.80;16.48;;;17.00;99.90;;;;;;5043006;28;20522;-57
2021/11/01 21:41:50;;;;;;;19.63;17.48;;;17.10;99.90;;;;;;5033804;28;20071;-56
2021/11/01 21:44:16;;;;;;;19.33;16.73;;;17.20;99.90;;;;;;5034645;28;20045;-54
2021/11/01 21:46:42;;;;;;;20.23;17.65;;;17.10;99.90;;;;;;5032519;28;20033;-54
2021/11/01 21:49:07;;;;;;;18.80;16.83;;;17.10;99.90;;;;;;5037458;28;20032;-56
2021/11/01 21:51:38;;;;;;;18.63;16.67;;;17.00;99.90;;;;;;5042513;28;20022;-52
2021/11/01 21:55:09;;;;;;;18.90;15.70;;;16.90;99.90;;;;;;5035102;28;20036;-51
2021/11/01 21:57:11;;;;;;;17.00;15.07;;;16.90;99.90;;;;;;5040113;28;20025;-53
2021/11/01 22:21:15;;;;;;;20.00;17.83;;;16.60;99.90;;;;;;5033320;28;20029;-52
2021/11/01 22:34:49;;;;;;;21.23;18.38;;;16.40;99.90;;;;;;5053563;28;20029;-52
2021/11/01 22:40:17;;;;;;;21.33;18.92;;;16.40;99.90;;;;;;5033070;28;20486;-53
2021/11/01 22:58:23;;;;;;;21.08;18.17;;;16.50;99.90;;;;;;5037149;28;20064;-51
2021/11/01 23:01:00;;;;;;;22.77;18.77;;;16.40;99.90;;;;;;5033507;28;20033;-55
2021/11/01 23:33:28;;;;;;;22.80;19.43;;;16.10;99.90;;;;;;5036991;28;20437;-52
2021/11/01 23:35:55;;;;;;;25.08;21.60;;;16.10;99.90;;;;;;5040906;28;20370;-51
2021/11/01 23:38:21;;;;;;;28.77;22.25;;;16.20;99.90;;;;;;5054086;28;20029;-52
2021/11/01 23:40:47;;;;;;;27.10;21.48;;;16.20;99.90;;;;;;5041614;28;20044;-52
2021/11/01 23:43:13;;;;;;;30.45;23.25;;;16.10;99.90;;;;;;5054479;28;20029;-51
2021/11/01 23:45:44;;;;;;;32.95;25.73;;;16.10;99.90;;;;;;5036056;28;20171;-52
2021/11/01 23:48:10;;;;;;;32.00;24.13;;;16.10;99.90;;;;;;5035970;28;20076;-50
2021/11/01 23:50:36;;;;;;;39.28;25.88;;;16.10;99.90;;;;;;5035577;28;20505;-51
2021/11/01 23:55:37;;;;;;;35.35;25.52;;;16.00;99.90;;;;;;5053386;28;20025;-52
2021/11/01 23:58:07;;;;;;;35.75;25.23;;;15.90;99.90;;;;;;5055681;28;20028;-53
